Time;durP1;ratioP1;P1;durP2;ratioP2;P2;SDS_P1;SDS_P2;PMS_P1;PMS_P2;Temp;Humidity;BMP_temperature;BMP_pressure;BME280_temperature;BME280_humidity;BME280_pressure;Samples;Min_cycle;Max_cycle;Signal;HPM_P1;HPM_P2
2022/06/11 00:01:29;;;;;;;7.35;2.35;;;;;;;24.75;46.95;102121.19;5091263;28;20559;-70
2022/06/11 00:03:59;;;;;;;5.38;1.95;;;;;;;24.59;47.26;102128.19;5107716;28;20020;-70
2022/06/11 00:06:27;;;;;;;6.82;2.50;;;;;;;25.47;45.53;102114.00;5107634;28;20062;-70
2022/06/11 00:08:53;;;;;;;5.95;1.73;;;;;;;24.45;48.05;102124.38;5091211;28;20024;-70
2022/06/11 00:11:20;;;;;;;4.68;1.80;;;;;;;25.79;44.96;102122.09;5091731;28;20027;-70
2022/06/11 00:13:46;;;;;;;7.90;1.77;;;;;;;24.76;47.50;102114.00;5090660;28;20035;-70
2022/06/11 00:16:15;;;;;;;5.82;1.50;;;;;;;25.72;45.24;102118.03;5091145;28;20552;-70
2022/06/11 00:18:42;;;;;;;6.70;2.33;;;;;;;24.68;47.19;102115.28;5090563;28;20055;-70
2022/06/11 00:21:09;;;;;;;5.38;2.42;;;;;;;24.02;48.58;102127.28;5107593;28;20101;-70
2022/06/11 00:23:35;;;;;;;6.85;1.83;;;;;;;24.98;46.08;102116.50;5089690;28;20196;-70
2022/06/11 00:26:02;;;;;;;5.20;1.60;;;;;;;24.28;48.52;102119.84;5091676;28;20016;-70
2022/06/11 00:28:28;;;;;;;4.38;1.60;;;;;;;25.13;45.97;102121.06;5091848;28;20086;-70
2022/06/11 00:30:54;;;;;;;3.35;1.48;;;;;;;24.23;48.08;102124.53;5106646;28;20123;-70
2022/06/11 00:33:20;;;;;;;9.23;1.55;;;;;;;25.65;44.69;102113.94;5091859;28;20535;-70
2022/06/11 00:35:46;;;;;;;3.50;1.33;;;;;;;25.80;44.36;102114.91;5107258;28;20453;-70
2022/06/11 00:38:13;;;;;;;5.68;1.85;;;;;;;24.89;46.84;102113.34;5106658;28;20040;-70
2022/06/11 00:40:42;;;;;;;5.40;1.40;;;;;;;24.87;46.53;102109.88;5093832;28;20032;-69
2022/06/11 00:43:08;;;;;;;7.75;1.40;;;;;;;24.71;46.79;102120.47;5111173;28;20466;-69
2022/06/11 00:45:43;;;;;;;4.30;1.95;;;;;;;25.17;46.47;102114.59;5110227;28;20038;-70
2022/06/11 00:48:09;;;;;;;5.10;1.42;;;;;;;24.07;47.93;102113.75;5111161;28;20022;-70
2022/06/11 00:50:59;;;;;;;3.08;1.17;;;;;;;23.05;52.05;102123.50;5110471;28;20040;-71
2022/06/11 00:53:33;;;;;;;8.20;1.60;;;;;;;23.45;51.88;102121.84;5110972;28;20213;-70
2022/06/11 00:56:00;;;;;;;1.40;1.25;;;;;;;23.90;51.47;102124.31;5110922;28;20499;-70
2022/06/11 00:58:30;;;;;;;3.33;1.20;;;;;;;24.00;49.00;102122.94;5109846;28;20036;-70
2022/06/11 01:00:58;;;;;;;2.75;1.42;;;;;;;24.04;49.56;102119.19;5095065;28;20028;-70
2022/06/11 01:03:35;;;;;;;2.95;1.30;;;;;;;24.08;48.80;102126.13;5110690;28;20031;-70
2022/06/11 01:06:28;;;;;;;3.53;1.40;;;;;;;24.33;49.30;102119.63;5094156;28;20383;-70
2022/06/11 01:09:04;;;;;;;;;;;;;;;24.05;49.78;102115.59;5111072;28;20118;-70
2022/06/11 01:11:58;;;;;;;5.43;1.65;;;;;;;24.31;48.82;102105.50;5092710;28;19915;-70
2022/06/11 01:14:59;;;;;;;5.18;1.40;;;;;;;24.78;47.28;102113.00;5094998;28;20067;-70
2022/06/11 01:17:49;;;;;;;6.57;1.58;;;;;;;25.04;45.94;102116.16;5097505;28;20047;-70
2022/06/11 01:20:31;;;;;;;5.20;1.10;;;;;;;24.64;45.76;102121.72;5092255;28;20032;-70
2022/06/11 01:23:40;;;;;;;4.97;1.15;;;;;;;24.85;46.13;102111.78;5110371;28;20127;-70
2022/06/11 01:26:42;;;;;;;3.90;1.40;;;;;;;23.66;48.33;102120.00;5077514;28;20071;-70
2022/06/11 01:29:21;;;;;;;6.63;1.23;;;;;;;24.10;47.77;102113.59;5110104;28;20028;-70
2022/06/11 01:31:57;;;;;;;4.97;1.52;;;;;;;23.27;50.01;102114.63;5093414;28;20028;-70
2022/06/11 01:34:38;;;;;;;6.82;1.95;;;;;;;24.12;47.42;102111.69;5092509;28;20568;-69
2022/06/11 01:37:08;;;;;;;3.00;1.38;;;;;;;23.72;49.26;102117.03;5093882;28;20082;-69
2022/06/11 01:39:58;;;;;;;2.28;1.23;;;;;;;24.26;46.91;102118.19;5092339;28;20035;-69
2022/06/11 01:42:50;;;;;;;6.90;1.50;;;;;;;24.05;47.13;102120.94;5093116;28;20028;-70
2022/06/11 01:45:18;;;;;;;6.32;1.63;;;;;;;23.90;47.94;102127.00;5094189;28;20092;-69
2022/06/11 01:47:45;;;;;;;9.98;2.13;;;;;;;24.01;47.57;102120.19;5093454;28;20475;-70
2022/06/11 01:50:14;;;;;;;8.95;1.58;;;;;;;23.90;47.21;102127.00;5093794;28;20023;-70
2022/06/11 01:52:48;;;;;;;3.95;2.30;;;;;;;23.35;48.34;102121.34;5109746;28;20027;-70
2022/06/11 01:55:22;;;;;;;6.03;1.73;;;;;;;24.00;46.63;102122.94;5108945;28;20074;-70
2022/06/11 01:58:19;;;;;;;11.60;1.80;;;;;;;24.08;46.91;102123.47;5109411;28;20035;-69
2022/06/11 02:01:21;;;;;;;7.22;2.05;;;;;;;23.92;46.27;102128.66;5108808;28;20045;-70
2022/06/11 02:04:23;;;;;;;4.90;1.58;;;;;;;23.85;47.02;102133.38;5092640;28;20020;-70
2022/06/11 02:07:04;;;;;;;3.75;1.48;;;;;;;23.95;46.14;102135.66;5109124;28;20032;-70
2022/06/11 02:09:39;;;;;;;7.25;1.42;;;;;;;23.96;46.50;102126.69;5108599;28;20038;-70
2022/06/11 02:12:45;;;;;;;9.23;1.60;;;;;;;24.13;46.16;102139.28;5109315;28;20169;-70
2022/06/11 02:15:30;;;;;;;7.85;1.77;;;;;;;24.07;46.30;102135.09;5091508;28;20532;-70
2022/06/11 02:18:05;;;;;;;8.20;1.63;;;;;;;23.89;46.08;102142.13;5109054;28;20499;-70
2022/06/11 02:20:54;;;;;;;6.57;1.73;;;;;;;23.68;45.98;102139.47;5108986;28;20391;-70
2022/06/11 02:23:25;;;;;;;8.15;1.55;;;;;;;22.93;47.16;102140.00;5092694;28;20134;-70
2022/06/11 02:25:56;;;;;;;8.30;1.60;;;;;;;23.42;46.23;102137.94;5093232;28;20032;-70
2022/06/11 02:28:28;;;;;;;7.07;2.13;;;;;;;23.60;44.79;102136.28;5108694;28;20027;-70
2022/06/11 02:30:57;;;;;;;5.20;1.60;;;;;;;23.99;44.47;102145.28;5108276;28;20430;-70
2022/06/11 02:33:23;;;;;;;13.77;2.58;;;;;;;22.80;47.01;102142.34;5093210;28;20044;-70
2022/06/11 02:35:51;;;;;;;9.00;2.13;;;;;;;23.30;46.52;102134.03;5090877;28;20020;-70
2022/06/11 02:38:23;;;;;;;9.75;2.42;;;;;;;23.36;45.94;102143.56;5108638;28;20028;-71
2022/06/11 02:40:56;;;;;;;6.43;2.03;;;;;;;22.34;48.03;102150.38;5091732;28;20020;-71
2022/06/11 02:43:21;;;;;;;9.00;2.05;;;;;;;22.96;46.77;102140.78;5107962;28;20051;-70
2022/06/11 02:45:47;;;;;;;13.95;2.55;;;;;;;23.87;44.52;102144.84;5093059;28;20472;-70
2022/06/11 02:48:14;;;;;;;8.10;2.28;;;;;;;24.15;43.89;102135.63;5108640;28;20051;-70
2022/06/11 02:50:40;;;;;;;6.32;1.67;;;;;;;22.77;46.50;102143.31;5090988;28;20082;-71
2022/06/11 02:53:07;;;;;;;10.43;2.30;;;;;;;23.16;45.78;102142.63;5108292;28;20379;-70
2022/06/11 02:55:34;;;;;;;9.13;2.10;;;;;;;23.42;45.42;102148.63;5092732;28;20058;-70
2022/06/11 02:58:00;;;;;;;12.63;2.15;;;;;;;24.05;44.75;102151.16;5090381;28;20369;-71
2022/06/11 03:00:30;;;;;;;9.23;1.80;;;;;;;23.06;45.51;102156.38;5092588;28;20027;-71
2022/06/11 03:02:55;;;;;;;12.55;2.42;;;;;;;23.98;44.20;102159.56;5107978;28;20077;-71
2022/06/11 03:05:24;;;;;;;10.10;1.98;;;;;;;23.19;45.82;102155.84;5090605;28;20077;-70
2022/06/11 03:07:50;;;;;;;11.20;2.72;;;;;;;24.46;42.97;102158.19;5091431;28;20028;-71
2022/06/11 03:10:19;;;;;;;10.80;1.95;;;;;;;24.68;42.63;102163.38;5091375;28;20024;-70
2022/06/11 03:12:44;;;;;;;10.55;2.10;;;;;;;24.03;44.44;102165.56;5090651;28;20024;-70
2022/06/11 03:15:11;;;;;;;10.77;2.00;;;;;;;23.05;46.51;102166.16;5108373;28;20028;-70
2022/06/11 03:17:38;;;;;;;11.13;2.17;;;;;;;23.54;44.95;102158.75;5107933;28;20107;-70
2022/06/11 03:20:06;;;;;;;15.55;2.35;;;;;;;23.83;44.54;102169.09;5107473;28;20365;-71
2022/06/11 03:22:32;;;;;;;11.25;2.20;;;;;;;24.08;43.83;102168.84;5107712;28;20020;-70
2022/06/11 03:24:57;;;;;;;9.85;2.08;;;;;;;24.56;43.00;102172.84;5091978;28;20084;-70
2022/06/11 03:27:23;;;;;;;9.23;2.33;;;;;;;24.87;41.82;102174.03;5107141;28;20023;-70
2022/06/11 03:29:49;;;;;;;10.05;2.08;;;;;;;24.08;43.49;102179.53;5092230;28;20391;-71
2022/06/11 03:32:14;;;;;;;16.27;2.67;;;;;;;24.26;43.75;102177.81;5107172;28;20058;-70
2022/06/11 03:34:41;;;;;;;8.48;1.85;;;;;;;24.01;43.49;102183.44;5092098;28;20060;-70
2022/06/11 03:37:06;;;;;;;9.95;2.08;;;;;;;24.50;42.79;102186.50;5107809;28;20091;-70
2022/06/11 03:39:32;;;;;;;11.55;2.88;;;;;;;24.49;42.66;102179.41;5090291;28;20551;-71
2022/06/11 03:41:57;;;;;;;13.93;2.70;;;;;;;24.93;41.97;102188.06;5107621;28;20048;-70
2022/06/11 03:44:24;;;;;;;12.23;2.78;;;;;;;24.49;42.36;102187.41;5092255;28;20097;-70
2022/06/11 03:46:50;;;;;;;17.33;2.80;;;;;;;23.57;44.99;102194.25;5091510;28;20020;-70
2022/06/11 03:49:16;;;;;;;8.32;2.25;;;;;;;23.85;44.90;102193.91;5107589;28;20035;-71
2022/06/11 03:51:43;;;;;;;13.98;2.83;;;;;;;24.04;43.57;102194.84;5092178;28;20028;-70
2022/06/11 03:54:09;;;;;;;16.88;3.67;;;;;;;24.03;44.37;102202.94;5091205;28;20028;-71
2022/06/11 03:56:36;;;;;;;14.82;2.30;;;;;;;24.26;43.78;102204.53;5091791;28;20028;-70
2022/06/11 03:59:03;;;;;;;14.27;2.42;;;;;;;24.21;43.42;102209.25;5092120;28;20020;-71
2022/06/11 04:01:28;;;;;;;16.63;2.67;;;;;;;24.27;43.68;102210.75;5106857;28;20020;-70
2022/06/11 04:04:23;;;;;;;9.48;2.08;;;;;;;24.04;44.13;102210.00;5090503;28;20050;-70
2022/06/11 04:06:52;;;;;;;20.77;2.50;;;;;;;24.46;43.00;102202.75;5086859;28;20035;-70
2022/06/11 04:09:25;;;;;;;14.10;2.75;;;;;;;24.48;43.25;102209.75;5089753;28;20051;-70
2022/06/11 04:11:52;;;;;;;14.80;3.53;;;;;;;23.74;44.70;102213.09;5107389;28;20437;-71
2022/06/11 04:14:19;;;;;;;16.27;2.65;;;;;;;24.12;44.24;102215.00;5108110;28;20052;-70
2022/06/11 04:16:52;;;;;;;18.88;3.05;;;;;;;23.55;44.84;102205.88;5095845;28;20028;-71
2022/06/11 04:19:22;;;;;;;16.02;2.95;;;;;;;23.81;44.95;102219.00;5111609;28;20035;-70
2022/06/11 04:21:49;;;;;;;16.33;4.22;;;;;;;23.87;45.42;102219.59;5093866;28;20428;-71
2022/06/11 04:24:15;;;;;;;15.82;2.78;;;;;;;23.76;44.90;102221.03;5094335;28;20082;-70
2022/06/11 04:26:44;;;;;;;18.52;3.72;;;;;;;24.46;43.77;102233.00;5111511;28;20019;-70
2022/06/11 04:29:13;;;;;;;12.20;2.42;;;;;;;25.11;42.21;102235.28;5093643;28;20030;-70
2022/06/11 04:31:39;;;;;;;17.98;3.97;;;;;;;23.88;44.71;102234.72;5095691;28;20388;-70
2022/06/11 04:34:05;;;;;;;21.25;2.70;;;;;;;24.70;42.31;102233.69;5111201;28;20024;-70
2022/06/11 04:36:33;;;;;;;15.43;3.13;;;;;;;24.38;43.97;102236.03;5094605;28;20051;-71
2022/06/11 04:38:58;;;;;;;18.77;3.17;;;;;;;24.04;44.64;102240.25;5094228;28;20085;-70
2022/06/11 04:41:25;;;;;;;16.83;2.95;;;;;;;23.93;45.15;102239.84;5095518;28;20028;-70
2022/06/11 04:43:51;;;;;;;13.88;2.78;;;;;;;24.94;43.58;102240.59;5093468;28;20024;-71
2022/06/11 04:46:17;;;;;;;14.93;2.53;;;;;;;25.91;41.31;102230.34;5110824;28;20024;-70
2022/06/11 04:48:43;;;;;;;22.23;3.80;;;;;;;26.66;40.26;102235.28;5110939;28;20020;-70
2022/06/11 04:51:10;;;;;;;15.40;3.40;;;;;;;26.90;39.10;102230.34;5093152;28;20032;-70
2022/06/11 04:53:35;;;;;;;16.70;2.55;;;;;;;28.04;36.54;102230.81;5111112;28;20020;-71
2022/06/11 04:56:01;;;;;;;19.02;3.13;;;;;;;27.46;38.64;102230.69;5110644;28;20077;-71
2022/06/11 04:58:27;;;;;;;12.13;2.92;;;;;;;28.94;35.51;102234.91;5110059;28;20080;-70
2022/06/11 05:00:52;;;;;;;16.30;3.58;;;;;;;26.46;39.05;102239.06;5110660;28;20038;-71
2022/06/11 05:03:18;;;;;;;16.88;3.33;;;;;;;26.00;41.14;102245.06;5093475;28;20115;-71
2022/06/11 05:05:44;;;;;;;21.58;2.97;;;;;;;25.66;41.08;102250.38;5092334;28;20089;-70
2022/06/11 05:08:11;;;;;;;11.05;2.47;;;;;;;28.70;36.03;102247.28;5110540;28;20036;-71
2022/06/11 05:10:37;;;;;;;15.15;3.28;;;;;;;28.59;36.10;102247.94;5092859;28;20337;-71
2022/06/11 05:13:04;;;;;;;24.45;2.95;;;;;;;26.37;40.95;102248.47;5110721;28;20028;-71
2022/06/11 05:15:30;;;;;;;17.63;3.20;;;;;;;27.12;39.08;102251.47;5093277;28;20028;-71
2022/06/11 05:17:56;;;;;;;18.13;3.40;;;;;;;27.15;39.07;102251.28;5092065;28;20047;-71
2022/06/11 05:20:21;;;;;;;16.70;2.85;;;;;;;26.87;39.36;102252.88;5093106;28;20036;-71
2022/06/11 05:22:48;;;;;;;13.32;2.97;;;;;;;27.33;38.62;102248.47;5093254;28;20035;-71
2022/06/11 05:25:15;;;;;;;16.38;3.13;;;;;;;25.99;41.45;102248.69;5093308;28;20056;-73
2022/06/11 05:27:42;;;;;;;21.73;4.03;;;;;;;25.84;41.32;102251.25;5094240;28;20098;-71
2022/06/11 05:30:12;;;;;;;19.70;3.25;;;;;;;24.32;45.01;102256.84;5094136;28;20185;-71
2022/06/11 05:32:40;;;;;;;23.75;3.20;;;;;;;25.47;42.66;102261.19;5093458;28;20035;-69
2022/06/11 05:35:08;;;;;;;20.23;3.25;;;;;;;24.02;46.58;102255.47;5110143;28;20035;-70
2022/06/11 05:37:34;;;;;;;20.05;3.30;;;;;;;23.02;48.21;102267.63;5093926;28;20048;-70
2022/06/11 05:39:59;;;;;;;21.40;3.70;;;;;;;24.16;46.31;102268.19;5109197;28;20503;-70
2022/06/11 05:42:26;;;;;;;16.63;3.83;;;;;;;23.95;47.13;102269.16;5094100;28;20024;-70
2022/06/11 05:44:52;;;;;;;18.63;3.60;;;;;;;24.85;45.01;102265.97;5093808;28;20031;-69
2022/06/11 05:47:20;;;;;;;16.85;3.35;;;;;;;24.73;45.24;102267.44;5093422;28;20032;-70
2022/06/11 05:49:49;;;;;;;9.55;2.53;;;;;;;23.59;46.48;102264.44;5094001;28;20020;-70
2022/06/11 05:52:26;;;;;;;18.13;4.00;;;;;;;25.64;42.89;102264.81;5092407;28;20034;-69
2022/06/11 05:54:53;;;;;;;18.00;2.70;;;;;;;24.99;44.08;102267.97;5093310;28;20028;-69
2022/06/11 05:57:23;;;;;;;17.65;3.10;;;;;;;25.40;42.65;102267.75;5109415;28;20054;-70
2022/06/11 05:59:54;;;;;;;18.38;3.78;;;;;;;24.62;43.58;102275.06;5091640;28;20111;-69
2022/06/11 06:02:22;;;;;;;18.08;3.22;;;;;;;24.99;43.54;102273.31;5093871;28;20485;-69
2022/06/11 06:04:47;;;;;;;15.90;3.35;;;;;;;24.89;43.32;102273.78;5109360;28;20055;-70
2022/06/11 06:07:13;;;;;;;16.65;3.92;;;;;;;24.00;44.36;102283.16;5092716;28;20056;-70
2022/06/11 06:09:39;;;;;;;17.85;3.38;;;;;;;23.71;45.06;102277.25;5092183;28;20813;-68
2022/06/11 06:12:05;;;;;;;23.85;4.22;;;;;;;25.62;42.13;102283.59;5092227;28;20035;-70
2022/06/11 06:14:31;;;;;;;18.40;3.63;;;;;;;24.59;42.32;102285.88;5108318;28;20028;-69
2022/06/11 06:16:56;;;;;;;17.70;3.72;;;;;;;26.66;39.16;102280.84;5093256;28;20103;-70
2022/06/11 06:19:22;;;;;;;11.38;2.92;;;;;;;26.98;38.72;102280.88;5109078;28;20058;-70
2022/06/11 06:21:47;;;;;;;17.73;3.50;;;;;;;28.31;36.22;102283.81;5091341;28;20373;-70
2022/06/11 06:24:13;;;;;;;10.82;3.03;;;;;;;29.78;33.44;102283.19;5093419;28;20128;-69
2022/06/11 06:26:38;;;;;;;19.02;3.53;;;;;;;31.92;29.90;102274.75;5108966;28;20030;-70
2022/06/11 06:29:04;;;;;;;21.77;2.90;;;;;;;30.47;31.09;102284.72;5092408;28;20032;-70
2022/06/11 06:31:30;;;;;;;14.55;2.75;;;;;;;30.05;31.75;102279.56;5091781;28;20114;-70
2022/06/11 06:34:01;;;;;;;18.38;3.78;;;;;;;29.61;32.59;102293.28;5091920;28;20251;-71
2022/06/11 06:36:30;;;;;;;14.05;2.78;;;;;;;30.60;31.15;102283.72;5090928;28;20040;-70
2022/06/11 06:38:56;;;;;;;20.60;2.92;;;;;;;30.68;30.13;102290.38;5090744;28;20032;-72
2022/06/11 06:41:22;;;;;;;15.65;2.70;;;;;;;31.49;29.31;102297.00;5092921;28;20024;-69
2022/06/11 06:43:48;;;;;;;21.45;2.95;;;;;;;31.34;30.46;102295.44;5092191;28;20537;-69
2022/06/11 06:46:14;;;;;;;15.13;2.95;;;;;;;30.05;30.48;102302.00;5093093;28;20019;-70
2022/06/11 06:48:40;;;;;;;21.48;4.72;;;;;;;31.18;30.46;102295.75;5091538;28;20073;-70
2022/06/11 06:51:06;;;;;;;14.68;2.70;;;;;;;30.67;30.65;102291.38;5092025;28;20035;-69
2022/06/11 06:53:32;;;;;;;21.08;3.08;;;;;;;29.52;32.53;102303.81;5091456;28;20115;-69
2022/06/11 06:55:57;;;;;;;10.38;2.30;;;;;;;30.51;31.25;102300.56;5092296;28;20103;-68
2022/06/11 06:58:23;;;;;;;14.95;2.95;;;;;;;31.19;30.24;102306.44;5092853;28;20054;-69
2022/06/11 07:00:50;;;;;;;20.15;3.08;;;;;;;32.75;27.14;102298.88;5091250;28;20024;-69
2022/06/11 07:03:15;;;;;;;14.05;2.47;;;;;;;32.32;28.15;102308.63;5091617;28;20024;-70
2022/06/11 07:05:42;;;;;;;15.88;2.80;;;;;;;33.84;26.99;102306.97;5108263;28;20020;-69
2022/06/11 07:08:07;;;;;;;15.18;3.13;;;;;;;29.29;31.78;102317.00;5108123;28;20480;-68
2022/06/11 07:10:33;;;;;;;13.50;2.70;;;;;;;33.28;27.49;102309.84;5107234;28;20031;-69
2022/06/11 07:13:00;;;;;;;13.48;2.67;;;;;;;33.14;26.68;102310.13;5092409;28;20028;-69
2022/06/11 07:15:27;;;;;;;9.23;2.30;;;;;;;34.45;24.72;102312.44;5108102;28;20103;-69
2022/06/11 07:18:01;;;;;;;13.15;2.40;;;;;;;32.78;27.28;102309.44;5107305;28;20031;-69
2022/06/11 07:20:31;;;;;;;12.75;2.38;;;;;;;35.03;24.37;102310.06;5108044;28;20024;-69
2022/06/11 07:23:06;;;;;;;13.23;2.38;;;;;;;35.83;23.68;102308.03;5108156;28;20044;-69
2022/06/11 07:25:32;;;;;;;12.02;2.58;;;;;;;32.99;26.12;102320.38;5090447;28;20023;-69
2022/06/11 07:28:04;;;;;;;11.68;2.50;;;;;;;33.22;25.94;102326.59;5107836;28;20111;-69
2022/06/11 07:30:34;;;;;;;14.68;2.63;;;;;;;33.21;26.50;102327.56;5092170;28;20032;-68
2022/06/11 07:33:07;;;;;;;11.88;2.83;;;;;;;35.67;23.60;102316.78;5091456;28;20034;-69
2022/06/11 07:35:35;;;;;;;16.70;3.42;;;;;;;34.22;25.84;102322.59;5092068;28;20031;-69
2022/06/11 07:38:06;;;;;;;13.30;2.72;;;;;;;33.56;25.55;102321.03;5091997;28;20048;-69
2022/06/11 07:40:32;;;;;;;16.92;2.92;;;;;;;34.67;23.24;102311.38;5090231;28;20023;-69
2022/06/11 07:42:57;;;;;;;9.68;2.88;;;;;;;32.47;25.69;102318.19;5092048;28;20446;-69
2022/06/11 07:45:23;;;;;;;13.38;2.35;;;;;;;32.76;26.05;102322.28;5089845;28;20112;-69
2022/06/11 07:47:54;;;;;;;14.73;3.03;;;;;;;35.44;24.18;102318.97;5091905;28;20387;-70
2022/06/11 07:50:28;;;;;;;12.25;2.22;;;;;;;34.33;23.82;102324.41;5107286;28;20038;-69
2022/06/11 07:52:55;;;;;;;13.15;2.22;;;;;;;34.27;24.10;102320.34;5090944;28;20032;-69
2022/06/11 07:55:21;;;;;;;10.73;2.20;;;;;;;34.06;24.13;102333.09;5107320;28;20023;-69
2022/06/11 07:57:47;;;;;;;11.60;2.70;;;;;;;35.55;23.01;102313.34;5090524;28;20081;-69
2022/06/11 08:00:17;;;;;;;11.63;2.63;;;;;;;35.64;22.58;102322.50;5106637;28;20480;-69
2022/06/11 08:02:43;;;;;;;16.02;2.67;;;;;;;33.01;25.73;102336.50;5091759;28;20056;-69
2022/06/11 08:05:09;;;;;;;13.55;2.13;;;;;;;33.82;23.60;102335.06;5107427;28;20506;-70
2022/06/11 08:07:34;;;;;;;11.63;2.13;;;;;;;36.99;21.32;102333.03;5089669;28;20032;-69
2022/06/11 08:09:59;;;;;;;11.45;2.38;;;;;;;34.15;23.80;102335.00;5091614;28;20027;-69
2022/06/11 08:12:26;;;;;;;9.50;3.22;;;;;;;33.73;23.15;102338.56;5107223;28;20034;-69
2022/06/11 08:14:56;;;;;;;9.73;2.33;;;;;;;35.15;21.92;102336.09;5090830;28;20060;-68
2022/06/11 08:17:26;;;;;;;14.57;3.08;;;;;;;35.17;21.78;102339.50;5091402;28;20405;-69
2022/06/11 08:19:52;;;;;;;13.02;2.38;;;;;;;34.02;23.21;102342.47;5091537;28;20031;-68
2022/06/11 08:22:18;;;;;;;12.52;2.60;;;;;;;36.38;21.82;102331.78;5090649;28;20361;-68
2022/06/11 08:24:44;;;;;;;11.05;2.33;;;;;;;35.66;21.69;102331.38;5091493;28;20092;-69
2022/06/11 08:27:09;;;;;;;9.88;1.92;;;;;;;34.04;21.50;102335.09;5090153;28;20111;-68
2022/06/11 08:29:34;;;;;;;10.90;1.88;;;;;;;36.73;20.47;102334.78;5105990;28;20039;-68
2022/06/11 08:32:00;;;;;;;14.18;2.03;;;;;;;37.51;20.02;102331.53;5106962;28;20012;-68
2022/06/11 08:34:25;;;;;;;8.32;2.15;;;;;;;37.01;20.50;102335.63;5106617;28;20027;-68
2022/06/11 08:36:51;;;;;;;11.73;2.33;;;;;;;36.07;20.71;102337.47;5089524;28;20123;-69
2022/06/11 08:39:16;;;;;;;11.27;2.30;;;;;;;36.36;20.31;102330.25;5091323;28;20032;-69
2022/06/11 08:41:42;;;;;;;10.30;2.47;;;;;;;36.46;19.66;102331.03;5106099;28;20020;-69
2022/06/11 08:44:11;;;;;;;12.52;2.88;;;;;;;37.73;18.01;102329.28;5106632;28;20103;-69
2022/06/11 08:46:40;;;;;;;14.77;2.53;;;;;;;35.80;20.22;102330.06;5091153;28;20020;-69
2022/06/11 08:49:08;;;;;;;9.95;2.08;;;;;;;39.33;18.23;102323.13;5090393;28;20031;-68
2022/06/11 08:51:55;;;;;;;14.35;2.20;;;;;;;36.14;19.90;102335.00;5106741;28;20173;-69
2022/06/11 08:54:29;;;;;;;9.10;1.83;;;;;;;36.72;19.53;102325.75;5106560;28;20016;-69
2022/06/11 08:57:13;;;;;;;14.45;2.45;;;;;;;34.58;21.14;102327.63;5106062;28;20023;-69
2022/06/11 09:00:17;;;;;;;9.70;2.42;;;;;;;36.04;21.97;102321.44;5106710;28;20120;-68
2022/06/11 09:03:07;;;;;;;12.05;2.45;;;;;;;35.85;21.41;102322.34;5093918;28;20031;-69
2022/06/11 09:05:50;;;;;;;12.18;2.08;;;;;;;32.46;24.04;102331.84;5109968;28;20027;-69
2022/06/11 09:08:34;;;;;;;18.05;2.50;;;;;;;35.82;23.00;102325.38;5094450;28;20031;-69
2022/06/11 09:11:30;;;;;;;15.82;3.05;;;;;;;37.46;20.05;102328.41;5109299;28;20031;-69
2022/06/11 09:14:14;;;;;;;9.93;2.20;;;;;;;37.07;20.31;102315.06;5109941;28;20028;-69
2022/06/11 09:17:03;;;;;;;10.50;2.33;;;;;;;34.05;22.89;102323.25;5109035;28;20028;-69
2022/06/11 09:20:15;;;;;;;11.00;2.67;;;;;;;34.35;22.79;102316.13;5109811;28;20024;-69
2022/06/11 09:23:01;;;;;;;10.02;2.45;;;;;;;35.56;21.71;102312.38;5082340;28;20093;-69
2022/06/11 09:25:48;;;;;;;11.55;2.25;;;;;;;31.18;25.44;102318.22;5109095;28;20027;-69
2022/06/11 09:28:29;;;;;;;12.70;2.58;;;;;;;33.20;24.79;102317.72;5109801;28;20043;-69
2022/06/11 09:31:19;;;;;;;12.45;2.25;;;;;;;31.69;25.81;102321.63;5093285;28;20028;-69
2022/06/11 09:33:56;;;;;;;11.38;1.80;;;;;;;33.97;24.09;102319.34;5093762;28;20055;-69
2022/06/11 09:36:35;;;;;;;13.25;2.10;;;;;;;34.18;22.63;102313.00;5109195;28;20044;-69
2022/06/11 09:39:26;;;;;;;7.60;1.88;;;;;;;36.51;21.84;102315.97;5092992;28;20373;-69
2022/06/11 09:42:11;;;;;;;13.30;2.50;;;;;;;38.27;19.43;102321.81;5093845;28;20028;-69
2022/06/11 09:45:22;;;;;;;10.50;1.88;;;;;;;37.81;19.59;102327.50;5093411;28;20428;-69
2022/06/11 09:48:11;;;;;;;11.05;2.10;;;;;;;37.90;19.63;102322.09;5068955;28;20054;-68
2022/06/11 09:50:46;;;;;;;9.48;2.75;;;;;;;37.86;19.09;102324.28;5093473;28;20061;-69
2022/06/11 09:53:29;;;;;;;12.20;2.13;;;;;;;38.58;18.78;102318.53;5091752;28;20034;-69
2022/06/11 09:56:18;;;;;;;15.27;2.30;;;;;;;38.25;18.09;102329.31;5109240;28;20027;-69
2022/06/11 09:59:28;;;;;;;8.85;2.28;;;;;;;37.84;19.71;102331.78;5109292;28;20076;-68
2022/06/11 10:02:40;;;;;;;10.80;2.50;;;;;;;39.16;19.19;102326.91;5104537;28;20130;-69
2022/06/11 10:05:13;;;;;;;7.53;1.75;;;;;;;37.73;18.87;102334.72;5093336;28;20479;-69
2022/06/11 10:07:44;;;;;;;9.55;2.22;;;;;;;34.90;20.28;102330.19;5108288;28;20372;-69
2022/06/11 10:10:15;;;;;;;9.30;2.35;;;;;;;36.59;20.66;102320.66;5091801;28;20032;-69
2022/06/11 10:12:43;;;;;;;10.90;1.92;;;;;;;36.54;20.41;102333.88;5108844;28;20040;-69
2022/06/11 10:15:23;;;;;;;9.00;1.67;;;;;;;35.19;22.09;102337.50;5108234;28;20039;-69
2022/06/11 10:17:48;;;;;;;10.85;2.10;;;;;;;33.82;23.50;102343.22;5093293;28;20023;-69
2022/06/11 10:20:19;;;;;;;12.00;2.05;;;;;;;36.76;21.18;102335.31;5108203;28;20479;-68
2022/06/11 10:23:17;;;;;;;12.73;2.28;;;;;;;37.89;20.51;102337.59;5108778;28;20038;-69
2022/06/11 10:25:59;;;;;;;7.53;1.90;;;;;;;38.20;18.47;102342.56;5069232;28;20097;-69
2022/06/11 10:28:24;;;;;;;12.30;2.20;;;;;;;37.23;19.59;102339.75;5091085;28;20035;-69
2022/06/11 10:30:59;;;;;;;8.00;1.75;;;;;;;39.14;17.77;102339.84;5093100;28;20023;-69
2022/06/11 10:33:36;;;;;;;8.68;1.85;;;;;;;36.26;20.17;102342.00;5093062;28;20103;-69
2022/06/11 10:36:23;;;;;;;12.80;2.10;;;;;;;34.69;21.74;102345.66;5092013;28;20180;-69
2022/06/11 10:39:03;;;;;;;10.57;1.98;;;;;;;35.06;21.93;102345.06;5108632;28;20069;-69
2022/06/11 10:41:55;;;;;;;7.03;1.65;;;;;;;35.35;21.77;102353.28;5107776;28;20023;-69
2022/06/11 10:44:45;;;;;;;6.88;2.05;;;;;;;35.69;20.56;102347.38;5108733;28;20028;-69
2022/06/11 10:47:16;;;;;;;11.80;1.98;;;;;;;35.38;21.58;102353.00;5108536;28;20090;-69
2022/06/11 10:49:44;;;;;;;12.43;2.03;;;;;;;36.93;18.95;102346.41;5092026;28;20028;-69
2022/06/11 10:52:15;;;;;;;7.78;1.80;;;;;;;37.68;19.28;102359.75;5108290;28;20057;-68
2022/06/11 10:54:41;;;;;;;10.43;1.80;;;;;;;36.33;19.43;102351.28;5108166;28;20434;-69
2022/06/11 10:57:31;;;;;;;7.28;1.95;;;;;;;37.28;19.18;102348.34;5090588;28;20059;-69
2022/06/11 11:00:20;;;;;;;7.20;1.73;;;;;;;35.80;20.53;102347.22;5090696;28;20551;-69
2022/06/11 11:02:52;;;;;;;11.65;2.00;;;;;;;33.58;22.60;102345.28;5107424;28;20096;-69
2022/06/11 11:05:19;;;;;;;12.37;2.33;;;;;;;33.65;23.46;102341.94;5108396;28;20028;-69
2022/06/11 11:07:54;;;;;;;9.05;1.70;;;;;;;33.79;22.81;102348.06;5107750;28;20032;-69
2022/06/11 11:10:34;;;;;;;9.32;2.13;;;;;;;31.90;25.06;102347.00;5107494;28;20089;-69
2022/06/11 11:13:03;;;;;;;12.98;2.50;;;;;;;33.91;24.68;102347.00;5092373;28;20058;-69
2022/06/11 11:15:38;;;;;;;12.50;3.10;;;;;;;33.47;23.11;102349.78;5091335;28;20457;-68
2022/06/11 11:18:23;;;;;;;8.95;1.88;;;;;;;34.65;22.38;102337.81;5091708;28;20472;-69
2022/06/11 11:20:53;;;;;;;14.55;2.17;;;;;;;34.72;23.42;102342.66;5092411;28;20026;-69
2022/06/11 11:23:38;;;;;;;9.55;2.10;;;;;;;35.43;21.22;102338.97;5090873;28;20024;-68
2022/06/11 11:26:20;;;;;;;14.27;2.90;;;;;;;33.81;23.71;102340.63;5108106;28;20020;-69
2022/06/11 11:29:04;;;;;;;11.48;1.85;;;;;;;34.41;21.86;102337.28;5092300;28;20024;-68
2022/06/11 11:31:52;;;;;;;8.77;1.90;;;;;;;35.63;21.67;102335.25;5107013;28;20059;-69
2022/06/11 11:34:20;;;;;;;9.88;1.50;;;;;;;31.86;24.10;102342.81;5092175;28;20384;-70
2022/06/11 11:36:45;;;;;;;8.75;2.08;;;;;;;34.60;21.30;102341.94;5107401;28;20047;-68
2022/06/11 11:39:15;;;;;;;11.38;2.22;;;;;;;34.45;21.67;102339.59;5091133;28;20109;-70
2022/06/11 11:42:10;;;;;;;14.27;1.73;;;;;;;33.26;22.04;102341.63;5107636;28;20042;-68
2022/06/11 11:44:57;;;;;;;7.00;1.70;;;;;;;33.56;22.64;102348.13;5089955;28;20032;-68